Terminal Aerodrome Forecast
Issued by NWS

Home | Current Version | Previous Version | Text Only | Print | Product List | Glossary On
Versions: 1 2 3 4 5 6 7 8 9 10 11 12 13 14 15 16 17 18 19 20 21 22 23 24 25 26 27 28 29 30 31 32 33
307
FTUS44 KFWD 220520
TAFGKY
TAF
KGKY 220520Z 2206/2306 34011KT 2SM -DZ BR OVC004
     FM221400 35009KT 3SM SHRA BR OVC007
      TEMPO 2217/2219 -TSRA OVC015CB
     FM222300 34007KT P6SM OVC008
     FM230400 32006KT P6SM FEW007 OVC015=

USA.gov is the U.S. government's official web portal to all federal, state and local government web resources and services.